sensor_id;sensor_type;location;lat;lon;timestamp;temperature;humidity
21108;DHT22;10712;52.944;9.098;2023-04-25T00:01:34;8.20;89.90
21108;DHT22;10712;52.944;9.098;2023-04-25T00:04:01;8.20;90.00
21108;DHT22;10712;52.944;9.098;2023-04-25T00:06:31;8.20;90.10
21108;DHT22;10712;52.944;9.098;2023-04-25T00:09:02;8.20;90.10
21108;DHT22;10712;52.944;9.098;2023-04-25T00:11:29;8.20;90.30
21108;DHT22;10712;52.944;9.098;2023-04-25T00:13:56;8.20;90.40
21108;DHT22;10712;52.944;9.098;2023-04-25T00:16:22;8.20;90.40
21108;DHT22;10712;52.944;9.098;2023-04-25T00:18:49;8.20;90.50
21108;DHT22;10712;52.944;9.098;2023-04-25T00:21:18;8.10;90.50
21108;DHT22;10712;52.944;9.098;2023-04-25T00:23:45;8.10;90.70
21108;DHT22;10712;52.944;9.098;2023-04-25T00:26:12;8.10;90.80
21108;DHT22;10712;52.944;9.098;2023-04-25T00:28:38;8.10;90.90
21108;DHT22;10712;52.944;9.098;2023-04-25T00:31:05;8.10;90.90
21108;DHT22;10712;52.944;9.098;2023-04-25T00:33:30;8.00;90.80
21108;DHT22;10712;52.944;9.098;2023-04-25T00:35:56;7.90;90.80
21108;DHT22;10712;52.944;9.098;2023-04-25T00:38:22;7.90;90.90
21108;DHT22;10712;52.944;9.098;2023-04-25T00:40:49;7.80;90.90
21108;DHT22;10712;52.944;9.098;2023-04-25T00:43:15;7.80;90.90
21108;DHT22;10712;52.944;9.098;2023-04-25T00:45:43;7.70;90.80
21108;DHT22;10712;52.944;9.098;2023-04-25T00:48:09;7.70;90.90
21108;DHT22;10712;52.944;9.098;2023-04-25T00:50:35;7.70;90.90
21108;DHT22;10712;52.944;9.098;2023-04-25T00:53:02;7.60;91.10
21108;DHT22;10712;52.944;9.098;2023-04-25T00:55:29;7.60;91.10
21108;DHT22;10712;52.944;9.098;2023-04-25T00:57:57;7.60;91.20
21108;DHT22;10712;52.944;9.098;2023-04-25T01:00:23;7.60;91.10
21108;DHT22;10712;52.944;9.098;2023-04-25T01:02:49;7.60;91.20
21108;DHT22;10712;52.944;9.098;2023-04-25T01:05:16;7.50;91.30
21108;DHT22;10712;52.944;9.098;2023-04-25T01:07:42;7.50;91.20
21108;DHT22;10712;52.944;9.098;2023-04-25T01:10:08;7.50;91.30
21108;DHT22;10712;52.944;9.098;2023-04-25T01:12:35;7.50;91.30
21108;DHT22;10712;52.944;9.098;2023-04-25T01:15:01;7.50;91.30
21108;DHT22;10712;52.944;9.098;2023-04-25T01:17:27;7.50;91.30
21108;DHT22;10712;52.944;9.098;2023-04-25T01:19:54;7.50;91.20
21108;DHT22;10712;52.944;9.098;2023-04-25T01:22:21;7.40;91.10
21108;DHT22;10712;52.944;9.098;2023-04-25T01:24:47;7.40;91.00
21108;DHT22;10712;52.944;9.098;2023-04-25T01:27:13;7.40;91.00
21108;DHT22;10712;52.944;9.098;2023-04-25T01:29:39;7.40;91.00
21108;DHT22;10712;52.944;9.098;2023-04-25T01:32:06;7.40;90.80
21108;DHT22;10712;52.944;9.098;2023-04-25T01:34:33;7.40;90.70
21108;DHT22;10712;52.944;9.098;2023-04-25T01:37:00;7.30;90.60
21108;DHT22;10712;52.944;9.098;2023-04-25T01:39:28;7.30;90.40
21108;DHT22;10712;52.944;9.098;2023-04-25T01:41:54;7.30;90.30
21108;DHT22;10712;52.944;9.098;2023-04-25T01:44:20;7.30;90.40
21108;DHT22;10712;52.944;9.098;2023-04-25T01:46:47;7.30;90.30
21108;DHT22;10712;52.944;9.098;2023-04-25T01:49:13;7.20;90.10
21108;DHT22;10712;52.944;9.098;2023-04-25T01:51:40;7.20;90.10
21108;DHT22;10712;52.944;9.098;2023-04-25T01:54:08;7.20;90.10
21108;DHT22;10712;52.944;9.098;2023-04-25T01:56:37;7.20;89.70
21108;DHT22;10712;52.944;9.098;2023-04-25T01:59:05;7.10;89.70
21108;DHT22;10712;52.944;9.098;2023-04-25T02:01:40;7.10;89.80
21108;DHT22;10712;52.944;9.098;2023-04-25T02:04:20;7.10;89.60
21108;DHT22;10712;52.944;9.098;2023-04-25T02:06:46;7.10;89.40
21108;DHT22;10712;52.944;9.098;2023-04-25T02:09:12;7.10;89.30
21108;DHT22;10712;52.944;9.098;2023-04-25T02:11:43;7.00;89.30
21108;DHT22;10712;52.944;9.098;2023-04-25T02:14:24;7.00;89.40
21108;DHT22;10712;52.944;9.098;2023-04-25T02:16:58;7.00;89.40
21108;DHT22;10712;52.944;9.098;2023-04-25T02:19:24;7.00;89.40
21108;DHT22;10712;52.944;9.098;2023-04-25T02:21:50;7.00;89.30
21108;DHT22;10712;52.944;9.098;2023-04-25T02:24:15;7.00;89.10
21108;DHT22;10712;52.944;9.098;2023-04-25T02:26:41;7.00;89.00
21108;DHT22;10712;52.944;9.098;2023-04-25T02:29:08;6.90;89.00
21108;DHT22;10712;52.944;9.098;2023-04-25T02:31:35;6.90;88.80
21108;DHT22;10712;52.944;9.098;2023-04-25T02:34:00;6.90;88.80
21108;DHT22;10712;52.944;9.098;2023-04-25T02:36:27;6.90;88.90
21108;DHT22;10712;52.944;9.098;2023-04-25T02:38:53;6.90;88.90
21108;DHT22;10712;52.944;9.098;2023-04-25T02:41:20;6.90;88.80
21108;DHT22;10712;52.944;9.098;2023-04-25T02:43:47;6.80;88.60
21108;DHT22;10712;52.944;9.098;2023-04-25T02:46:12;6.80;88.60
21108;DHT22;10712;52.944;9.098;2023-04-25T02:48:38;6.80;88.50
21108;DHT22;10712;52.944;9.098;2023-04-25T02:51:04;6.80;88.20
21108;DHT22;10712;52.944;9.098;2023-04-25T02:53:31;6.70;88.10
21108;DHT22;10712;52.944;9.098;2023-04-25T02:55:56;6.70;87.90
21108;DHT22;10712;52.944;9.098;2023-04-25T02:58:24;6.60;87.70
21108;DHT22;10712;52.944;9.098;2023-04-25T03:00:52;6.50;87.60
21108;DHT22;10712;52.944;9.098;2023-04-25T03:03:18;6.50;87.70
21108;DHT22;10712;52.944;9.098;2023-04-25T03:05:48;6.50;87.70
21108;DHT22;10712;52.944;9.098;2023-04-25T03:08:18;6.50;87.70
21108;DHT22;10712;52.944;9.098;2023-04-25T03:10:45;6.40;87.70
21108;DHT22;10712;52.944;9.098;2023-04-25T03:13:13;6.40;87.50
21108;DHT22;10712;52.944;9.098;2023-04-25T03:15:41;6.40;87.50
21108;DHT22;10712;52.944;9.098;2023-04-25T03:18:07;6.40;87.40
21108;DHT22;10712;52.944;9.098;2023-04-25T03:20:32;6.30;87.40
21108;DHT22;10712;52.944;9.098;2023-04-25T03:22:58;6.30;87.30
21108;DHT22;10712;52.944;9.098;2023-04-25T03:25:24;6.30;87.30
21108;DHT22;10712;52.944;9.098;2023-04-25T03:27:50;6.30;87.40
21108;DHT22;10712;52.944;9.098;2023-04-25T03:30:17;6.30;87.40
21108;DHT22;10712;52.944;9.098;2023-04-25T03:32:43;6.30;87.30
21108;DHT22;10712;52.944;9.098;2023-04-25T03:35:12;6.30;87.40
21108;DHT22;10712;52.944;9.098;2023-04-25T03:37:38;6.30;87.30
21108;DHT22;10712;52.944;9.098;2023-04-25T03:40:07;6.30;87.40
21108;DHT22;10712;52.944;9.098;2023-04-25T03:42:53;6.30;87.20
21108;DHT22;10712;52.944;9.098;2023-04-25T03:45:19;6.30;87.10
21108;DHT22;10712;52.944;9.098;2023-04-25T03:47:45;6.30;87.20
21108;DHT22;10712;52.944;9.098;2023-04-25T03:50:11;6.30;87.00
21108;DHT22;10712;52.944;9.098;2023-04-25T03:52:36;6.30;87.10
21108;DHT22;10712;52.944;9.098;2023-04-25T03:55:02;6.20;87.10
21108;DHT22;10712;52.944;9.098;2023-04-25T03:57:30;6.30;87.00
21108;DHT22;10712;52.944;9.098;2023-04-25T03:59:56;6.30;87.00
21108;DHT22;10712;52.944;9.098;2023-04-25T04:02:22;6.30;87.00
21108;DHT22;10712;52.944;9.098;2023-04-25T04:04:48;6.30;86.90
21108;DHT22;10712;52.944;9.098;2023-04-25T04:07:15;6.30;87.00
21108;DHT22;10712;52.944;9.098;2023-04-25T04:09:44;6.30;86.90
21108;DHT22;10712;52.944;9.098;2023-04-25T04:12:17;6.30;86.80
21108;DHT22;10712;52.944;9.098;2023-04-25T04:14:43;6.30;86.80
21108;DHT22;10712;52.944;9.098;2023-04-25T04:17:09;6.30;86.80
21108;DHT22;10712;52.944;9.098;2023-04-25T04:19:35;6.30;86.70
21108;DHT22;10712;52.944;9.098;2023-04-25T04:22:09;6.30;86.70
21108;DHT22;10712;52.944;9.098;2023-04-25T04:24:35;6.30;86.50
21108;DHT22;10712;52.944;9.098;2023-04-25T04:27:05;6.30;86.40
21108;DHT22;10712;52.944;9.098;2023-04-25T04:30:00;6.30;86.30
21108;DHT22;10712;52.944;9.098;2023-04-25T04:32:31;6.20;86.30
21108;DHT22;10712;52.944;9.098;2023-04-25T04:34:58;6.20;86.30
21108;DHT22;10712;52.944;9.098;2023-04-25T04:37:25;6.20;86.30
21108;DHT22;10712;52.944;9.098;2023-04-25T04:39:51;6.20;86.30
21108;DHT22;10712;52.944;9.098;2023-04-25T04:42:29;6.30;86.10
21108;DHT22;10712;52.944;9.098;2023-04-25T04:45:04;6.20;85.60
21108;DHT22;10712;52.944;9.098;2023-04-25T04:47:56;6.20;85.60
21108;DHT22;10712;52.944;9.098;2023-04-25T04:50:43;6.20;85.50
21108;DHT22;10712;52.944;9.098;2023-04-25T04:53:21;6.20;85.40
21108;DHT22;10712;52.944;9.098;2023-04-25T04:56:06;6.10;85.30
21108;DHT22;10712;52.944;9.098;2023-04-25T04:58:52;6.10;85.40
21108;DHT22;10712;52.944;9.098;2023-04-25T05:01:47;6.10;85.30
21108;DHT22;10712;52.944;9.098;2023-04-25T05:04:25;6.10;85.30
21108;DHT22;10712;52.944;9.098;2023-04-25T05:07:14;6.10;85.30
21108;DHT22;10712;52.944;9.098;2023-04-25T05:10:04;6.00;85.10
21108;DHT22;10712;52.944;9.098;2023-04-25T05:12:49;6.00;84.90
21108;DHT22;10712;52.944;9.098;2023-04-25T05:15:44;6.10;84.60
21108;DHT22;10712;52.944;9.098;2023-04-25T05:18:21;6.10;84.50
21108;DHT22;10712;52.944;9.098;2023-04-25T05:20:59;6.10;84.30
21108;DHT22;10712;52.944;9.098;2023-04-25T05:23:44;6.10;83.80
21108;DHT22;10712;52.944;9.098;2023-04-25T05:26:30;6.20;83.50
21108;DHT22;10712;52.944;9.098;2023-04-25T05:29:06;6.20;83.20
21108;DHT22;10712;52.944;9.098;2023-04-25T05:31:57;6.20;83.20
21108;DHT22;10712;52.944;9.098;2023-04-25T05:34:23;6.20;83.10
21108;DHT22;10712;52.944;9.098;2023-04-25T05:37:01;6.30;83.10
21108;DHT22;10712;52.944;9.098;2023-04-25T05:39:27;6.30;82.90
21108;DHT22;10712;52.944;9.098;2023-04-25T05:42:06;6.30;82.60
21108;DHT22;10712;52.944;9.098;2023-04-25T05:44:51;6.30;82.60
21108;DHT22;10712;52.944;9.098;2023-04-25T05:47:40;6.40;82.30
21108;DHT22;10712;52.944;9.098;2023-04-25T05:50:12;6.40;81.80
21108;DHT22;10712;52.944;9.098;2023-04-25T05:53:04;6.40;81.30
21108;DHT22;10712;52.944;9.098;2023-04-25T05:55:35;6.40;81.80
21108;DHT22;10712;52.944;9.098;2023-04-25T05:58:13;6.40;81.90
21108;DHT22;10712;52.944;9.098;2023-04-25T06:00:39;6.40;81.80
21108;DHT22;10712;52.944;9.098;2023-04-25T06:03:07;6.40;81.60
21108;DHT22;10712;52.944;9.098;2023-04-25T06:05:35;6.50;81.40
21108;DHT22;10712;52.944;9.098;2023-04-25T06:08:02;6.50;81.20
21108;DHT22;10712;52.944;9.098;2023-04-25T06:10:28;6.50;80.90
21108;DHT22;10712;52.944;9.098;2023-04-25T06:12:53;6.50;80.80
21108;DHT22;10712;52.944;9.098;2023-04-25T06:15:21;6.50;80.80
21108;DHT22;10712;52.944;9.098;2023-04-25T06:17:47;6.50;80.20
21108;DHT22;10712;52.944;9.098;2023-04-25T06:20:12;6.50;80.10
21108;DHT22;10712;52.944;9.098;2023-04-25T06:22:39;6.50;79.90
21108;DHT22;10712;52.944;9.098;2023-04-25T06:25:05;6.60;79.90
21108;DHT22;10712;52.944;9.098;2023-04-25T06:27:33;6.60;80.20
21108;DHT22;10712;52.944;9.098;2023-04-25T06:30:00;6.60;80.20
21108;DHT22;10712;52.944;9.098;2023-04-25T06:32:26;6.70;80.30
21108;DHT22;10712;52.944;9.098;2023-04-25T06:34:54;6.70;80.50
21108;DHT22;10712;52.944;9.098;2023-04-25T06:37:21;6.70;80.00
21108;DHT22;10712;52.944;9.098;2023-04-25T06:39:46;6.70;80.00
21108;DHT22;10712;52.944;9.098;2023-04-25T06:42:14;6.80;79.90
21108;DHT22;10712;52.944;9.098;2023-04-25T06:44:48;6.80;80.00
21108;DHT22;10712;52.944;9.098;2023-04-25T06:47:15;6.80;79.40
21108;DHT22;10712;52.944;9.098;2023-04-25T06:49:42;6.90;79.30
21108;DHT22;10712;52.944;9.098;2023-04-25T06:52:09;6.90;79.00
21108;DHT22;10712;52.944;9.098;2023-04-25T06:54:36;7.00;79.10
21108;DHT22;10712;52.944;9.098;2023-04-25T06:57:14;7.10;79.70
21108;DHT22;10712;52.944;9.098;2023-04-25T06:59:40;7.10;78.80
21108;DHT22;10712;52.944;9.098;2023-04-25T07:02:06;7.20;78.10
21108;DHT22;10712;52.944;9.098;2023-04-25T07:04:32;7.20;77.50
21108;DHT22;10712;52.944;9.098;2023-04-25T07:06:58;7.30;77.00
21108;DHT22;10712;52.944;9.098;2023-04-25T07:09:33;7.40;77.40
21108;DHT22;10712;52.944;9.098;2023-04-25T07:12:00;7.40;77.10
21108;DHT22;10712;52.944;9.098;2023-04-25T07:14:28;7.50;77.50
21108;DHT22;10712;52.944;9.098;2023-04-25T07:16:55;7.60;76.50
21108;DHT22;10712;52.944;9.098;2023-04-25T07:19:23;7.60;76.50
21108;DHT22;10712;52.944;9.098;2023-04-25T07:21:55;7.70;76.70
21108;DHT22;10712;52.944;9.098;2023-04-25T07:24:21;7.80;77.10
21108;DHT22;10712;52.944;9.098;2023-04-25T07:26:48;7.70;75.80
21108;DHT22;10712;52.944;9.098;2023-04-25T07:29:28;7.80;76.20
21108;DHT22;10712;52.944;9.098;2023-04-25T07:31:58;7.80;74.90
21108;DHT22;10712;52.944;9.098;2023-04-25T07:34:24;7.80;74.90
21108;DHT22;10712;52.944;9.098;2023-04-25T07:36:49;7.80;74.30
21108;DHT22;10712;52.944;9.098;2023-04-25T07:39:16;7.80;72.60
21108;DHT22;10712;52.944;9.098;2023-04-25T07:41:41;7.80;73.60
21108;DHT22;10712;52.944;9.098;2023-04-25T07:44:12;7.80;73.70
21108;DHT22;10712;52.944;9.098;2023-04-25T07:46:38;7.80;73.90
21108;DHT22;10712;52.944;9.098;2023-04-25T07:49:05;7.70;73.80
21108;DHT22;10712;52.944;9.098;2023-04-25T07:51:31;7.70;74.30
21108;DHT22;10712;52.944;9.098;2023-04-25T07:54:00;7.70;74.60
21108;DHT22;10712;52.944;9.098;2023-04-25T07:56:27;7.70;74.50
21108;DHT22;10712;52.944;9.098;2023-04-25T07:58:53;7.80;74.40
21108;DHT22;10712;52.944;9.098;2023-04-25T08:01:20;7.80;74.20
21108;DHT22;10712;52.944;9.098;2023-04-25T08:03:57;7.90;74.80
21108;DHT22;10712;52.944;9.098;2023-04-25T08:06:34;8.00;74.20
21108;DHT22;10712;52.944;9.098;2023-04-25T08:09:06;8.00;74.00
21108;DHT22;10712;52.944;9.098;2023-04-25T08:11:38;8.10;73.30
21108;DHT22;10712;52.944;9.098;2023-04-25T08:14:05;8.20;72.30
21108;DHT22;10712;52.944;9.098;2023-04-25T08:16:32;8.10;71.30
21108;DHT22;10712;52.944;9.098;2023-04-25T08:18:59;8.10;71.30
21108;DHT22;10712;52.944;9.098;2023-04-25T08:21:25;8.20;72.00
21108;DHT22;10712;52.944;9.098;2023-04-25T08:23:54;8.30;71.10
21108;DHT22;10712;52.944;9.098;2023-04-25T08:26:28;8.40;69.80
21108;DHT22;10712;52.944;9.098;2023-04-25T08:28:55;8.60;70.50
21108;DHT22;10712;52.944;9.098;2023-04-25T08:31:21;8.70;69.50
21108;DHT22;10712;52.944;9.098;2023-04-25T08:33:59;8.80;69.10
21108;DHT22;10712;52.944;9.098;2023-04-25T08:36:33;8.80;68.50
21108;DHT22;10712;52.944;9.098;2023-04-25T08:38:59;8.80;67.60
21108;DHT22;10712;52.944;9.098;2023-04-25T08:41:26;8.80;67.40
21108;DHT22;10712;52.944;9.098;2023-04-25T08:43:53;8.70;68.10
21108;DHT22;10712;52.944;9.098;2023-04-25T08:46:23;8.60;68.50
21108;DHT22;10712;52.944;9.098;2023-04-25T08:49:08;8.50;69.10
21108;DHT22;10712;52.944;9.098;2023-04-25T08:51:36;8.40;69.50
21108;DHT22;10712;52.944;9.098;2023-04-25T08:54:12;8.40;69.50
21108;DHT22;10712;52.944;9.098;2023-04-25T08:56:43;8.30;70.00
21108;DHT22;10712;52.944;9.098;2023-04-25T08:59:12;8.30;70.00
21108;DHT22;10712;52.944;9.098;2023-04-25T09:01:38;8.20;69.70
21108;DHT22;10712;52.944;9.098;2023-04-25T09:04:04;8.10;71.00
21108;DHT22;10712;52.944;9.098;2023-04-25T09:06:30;7.90;71.90
21108;DHT22;10712;52.944;9.098;2023-04-25T09:09:03;7.70;73.40
21108;DHT22;10712;52.944;9.098;2023-04-25T09:11:34;7.50;74.50
21108;DHT22;10712;52.944;9.098;2023-04-25T09:14:19;7.40;75.50
21108;DHT22;10712;52.944;9.098;2023-04-25T09:17:06;7.30;75.90
21108;DHT22;10712;52.944;9.098;2023-04-25T09:19:48;7.30;76.20
21108;DHT22;10712;52.944;9.098;2023-04-25T09:22:28;7.30;76.60
21108;DHT22;10712;52.944;9.098;2023-04-25T09:24:54;7.40;76.80
21108;DHT22;10712;52.944;9.098;2023-04-25T09:27:23;7.40;76.60
21108;DHT22;10712;52.944;9.098;2023-04-25T09:29:59;7.40;76.80
21108;DHT22;10712;52.944;9.098;2023-04-25T09:32:43;7.50;77.10
21108;DHT22;10712;52.944;9.098;2023-04-25T09:35:09;7.60;77.50
21108;DHT22;10712;52.944;9.098;2023-04-25T09:37:36;7.70;77.30
21108;DHT22;10712;52.944;9.098;2023-04-25T09:40:06;7.80;76.40
21108;DHT22;10712;52.944;9.098;2023-04-25T09:42:42;8.00;76.90
21108;DHT22;10712;52.944;9.098;2023-04-25T09:45:12;8.20;74.70
21108;DHT22;10712;52.944;9.098;2023-04-25T09:47:41;8.30;74.30
21108;DHT22;10712;52.944;9.098;2023-04-25T09:50:17;8.50;71.60
21108;DHT22;10712;52.944;9.098;2023-04-25T09:53:05;8.70;72.50
21108;DHT22;10712;52.944;9.098;2023-04-25T09:55:49;8.80;71.50
21108;DHT22;10712;52.944;9.098;2023-04-25T09:58:15;8.90;69.30
21108;DHT22;10712;52.944;9.098;2023-04-25T10:00:42;9.00;68.80
21108;DHT22;10712;52.944;9.098;2023-04-25T10:03:24;9.00;69.00
21108;DHT22;10712;52.944;9.098;2023-04-25T10:06:15;9.00;68.90
21108;DHT22;10712;52.944;9.098;2023-04-25T10:08:45;9.00;69.00
21108;DHT22;10712;52.944;9.098;2023-04-25T10:11:15;9.00;68.40
21108;DHT22;10712;52.944;9.098;2023-04-25T10:13:42;8.90;68.40
21108;DHT22;10712;52.944;9.098;2023-04-25T10:16:10;8.80;69.20
21108;DHT22;10712;52.944;9.098;2023-04-25T10:18:36;8.70;68.40
21108;DHT22;10712;52.944;9.098;2023-04-25T10:21:04;8.70;69.20
21108;DHT22;10712;52.944;9.098;2023-04-25T10:23:32;8.60;70.80
21108;DHT22;10712;52.944;9.098;2023-04-25T10:26:00;8.70;70.90
21108;DHT22;10712;52.944;9.098;2023-04-25T10:28:26;8.80;71.60
21108;DHT22;10712;52.944;9.098;2023-04-25T10:31:04;8.80;71.50
21108;DHT22;10712;52.944;9.098;2023-04-25T10:33:34;8.90;70.40
21108;DHT22;10712;52.944;9.098;2023-04-25T10:36:13;9.00;71.70
21108;DHT22;10712;52.944;9.098;2023-04-25T10:38:42;9.10;71.30
21108;DHT22;10712;52.944;9.098;2023-04-25T10:41:10;9.20;70.20
21108;DHT22;10712;52.944;9.098;2023-04-25T10:43:46;9.20;69.50
21108;DHT22;10712;52.944;9.098;2023-04-25T10:48:52;9.10;67.10
21108;DHT22;10712;52.944;9.098;2023-04-25T10:51:27;9.10;67.50
21108;DHT22;10712;52.944;9.098;2023-04-25T10:59:19;9.20;67.00
21108;DHT22;10712;52.944;9.098;2023-04-25T11:01:49;9.10;65.60
21108;DHT22;10712;52.944;9.098;2023-04-25T11:09:34;8.40;66.10
21108;DHT22;10712;52.944;9.098;2023-04-25T11:12:01;8.30;67.40
21108;DHT22;10712;52.944;9.098;2023-04-25T11:14:27;8.20;68.30
21108;DHT22;10712;52.944;9.098;2023-04-25T11:16:54;8.10;69.00
21108;DHT22;10712;52.944;9.098;2023-04-25T11:19:24;8.10;69.50
21108;DHT22;10712;52.944;9.098;2023-04-25T11:21:55;8.20;70.60
21108;DHT22;10712;52.944;9.098;2023-04-25T11:24:29;8.20;70.70
21108;DHT22;10712;52.944;9.098;2023-04-25T11:26:57;8.20;70.90
21108;DHT22;10712;52.944;9.098;2023-04-25T11:29:28;8.30;71.20
21108;DHT22;10712;52.944;9.098;2023-04-25T11:31:55;8.30;71.00
21108;DHT22;10712;52.944;9.098;2023-04-25T11:34:26;8.40;71.20
21108;DHT22;10712;52.944;9.098;2023-04-25T11:36:56;8.50;71.70
21108;DHT22;10712;52.944;9.098;2023-04-25T11:39:24;8.70;73.30
21108;DHT22;10712;52.944;9.098;2023-04-25T11:41:51;8.90;72.70
21108;DHT22;10712;52.944;9.098;2023-04-25T11:44:18;9.10;71.10
21108;DHT22;10712;52.944;9.098;2023-04-25T11:46:45;9.20;70.50
21108;DHT22;10712;52.944;9.098;2023-04-25T11:49:12;9.40;70.60
21108;DHT22;10712;52.944;9.098;2023-04-25T11:51:42;9.60;71.60
21108;DHT22;10712;52.944;9.098;2023-04-25T11:54:10;9.80;71.10
21108;DHT22;10712;52.944;9.098;2023-04-25T11:56:37;10.00;70.20
21108;DHT22;10712;52.944;9.098;2023-04-25T11:59:07;10.10;69.00
21108;DHT22;10712;52.944;9.098;2023-04-25T12:01:40;10.30;69.50
21108;DHT22;10712;52.944;9.098;2023-04-25T12:04:15;10.10;65.90
21108;DHT22;10712;52.944;9.098;2023-04-25T12:06:44;9.80;66.40
21108;DHT22;10712;52.944;9.098;2023-04-25T12:09:15;9.40;69.10
21108;DHT22;10712;52.944;9.098;2023-04-25T12:11:44;8.90;71.60
21108;DHT22;10712;52.944;9.098;2023-04-25T12:14:12;8.50;74.00
21108;DHT22;10712;52.944;9.098;2023-04-25T12:16:46;8.10;74.90
21108;DHT22;10712;52.944;9.098;2023-04-25T12:19:15;7.90;76.40
21108;DHT22;10712;52.944;9.098;2023-04-25T12:21:43;7.70;77.00
21108;DHT22;10712;52.944;9.098;2023-04-25T12:24:11;7.60;77.30
21108;DHT22;10712;52.944;9.098;2023-04-25T12:26:48;7.60;77.80
21108;DHT22;10712;52.944;9.098;2023-04-25T12:29:23;7.60;78.00
21108;DHT22;10712;52.944;9.098;2023-04-25T12:31:51;7.70;78.60
21108;DHT22;10712;52.944;9.098;2023-04-25T12:34:19;7.90;79.30
21108;DHT22;10712;52.944;9.098;2023-04-25T12:36:46;8.20;80.50
21108;DHT22;10712;52.944;9.098;2023-04-25T12:39:20;8.50;80.10
21108;DHT22;10712;52.944;9.098;2023-04-25T12:41:51;8.80;79.10
21108;DHT22;10712;52.944;9.098;2023-04-25T12:44:20;9.00;76.30
21108;DHT22;10712;52.944;9.098;2023-04-25T12:46:47;9.20;73.40
21108;DHT22;10712;52.944;9.098;2023-04-25T12:49:13;9.30;74.10
21108;DHT22;10712;52.944;9.098;2023-04-25T12:51:39;9.40;72.80
21108;DHT22;10712;52.944;9.098;2023-04-25T12:54:07;9.40;70.30
21108;DHT22;10712;52.944;9.098;2023-04-25T12:56:34;9.40;69.90
21108;DHT22;10712;52.944;9.098;2023-04-25T12:59:00;9.30;70.00
21108;DHT22;10712;52.944;9.098;2023-04-25T13:01:28;9.20;68.20
21108;DHT22;10712;52.944;9.098;2023-04-25T13:03:54;9.20;67.80
21108;DHT22;10712;52.944;9.098;2023-04-25T13:06:21;9.10;69.10
21108;DHT22;10712;52.944;9.098;2023-04-25T13:08:48;9.10;68.40
21108;DHT22;10712;52.944;9.098;2023-04-25T13:11:14;9.10;68.60
21108;DHT22;10712;52.944;9.098;2023-04-25T13:13:43;9.10;67.60
21108;DHT22;10712;52.944;9.098;2023-04-25T13:16:10;9.10;69.00
21108;DHT22;10712;52.944;9.098;2023-04-25T13:18:37;9.20;69.10
21108;DHT22;10712;52.944;9.098;2023-04-25T13:21:02;9.30;68.80
21108;DHT22;10712;52.944;9.098;2023-04-25T13:23:29;9.50;68.90
21108;DHT22;10712;52.944;9.098;2023-04-25T13:25:56;9.60;67.90
21108;DHT22;10712;52.944;9.098;2023-04-25T13:28:27;9.80;67.50
21108;DHT22;10712;52.944;9.098;2023-04-25T13:30:53;9.90;66.70
21108;DHT22;10712;52.944;9.098;2023-04-25T13:33:20;10.10;66.40
21108;DHT22;10712;52.944;9.098;2023-04-25T13:35:48;10.20;66.60
21108;DHT22;10712;52.944;9.098;2023-04-25T13:38:25;10.20;65.50
21108;DHT22;10712;52.944;9.098;2023-04-25T13:40:51;10.00;65.40
21108;DHT22;10712;52.944;9.098;2023-04-25T13:43:21;9.70;67.00
21108;DHT22;10712;52.944;9.098;2023-04-25T13:45:50;9.30;67.70
21108;DHT22;10712;52.944;9.098;2023-04-25T13:48:17;9.10;69.60
21108;DHT22;10712;52.944;9.098;2023-04-25T13:50:43;8.90;70.60
21108;DHT22;10712;52.944;9.098;2023-04-25T13:53:09;8.80;70.70
21108;DHT22;10712;52.944;9.098;2023-04-25T13:55:35;8.70;70.80
21108;DHT22;10712;52.944;9.098;2023-04-25T13:58:02;8.60;71.70
21108;DHT22;10712;52.944;9.098;2023-04-25T14:00:34;8.70;73.20
21108;DHT22;10712;52.944;9.098;2023-04-25T14:03:04;8.80;74.00
21108;DHT22;10712;52.944;9.098;2023-04-25T14:05:32;9.00;73.00
21108;DHT22;10712;52.944;9.098;2023-04-25T14:08:04;9.20;69.00
21108;DHT22;10712;52.944;9.098;2023-04-25T14:10:31;9.30;68.50
21108;DHT22;10712;52.944;9.098;2023-04-25T14:12:56;9.50;68.60
21108;DHT22;10712;52.944;9.098;2023-04-25T14:15:22;9.70;67.60
21108;DHT22;10712;52.944;9.098;2023-04-25T14:17:48;9.80;63.80
21108;DHT22;10712;52.944;9.098;2023-04-25T14:20:14;9.90;64.20
21108;DHT22;10712;52.944;9.098;2023-04-25T14:22:40;9.80;63.20
21108;DHT22;10712;52.944;9.098;2023-04-25T14:25:09;9.70;61.00
21108;DHT22;10712;52.944;9.098;2023-04-25T14:27:35;9.60;61.00
21108;DHT22;10712;52.944;9.098;2023-04-25T14:30:00;9.50;60.40
21108;DHT22;10712;52.944;9.098;2023-04-25T14:32:26;9.30;59.10
21108;DHT22;10712;52.944;9.098;2023-04-25T14:34:52;9.30;60.40
21108;DHT22;10712;52.944;9.098;2023-04-25T14:37:18;9.50;60.00
21108;DHT22;10712;52.944;9.098;2023-04-25T14:39:44;9.60;61.50
21108;DHT22;10712;52.944;9.098;2023-04-25T14:42:09;9.80;62.10
21108;DHT22;10712;52.944;9.098;2023-04-25T14:44:38;10.00;60.90
21108;DHT22;10712;52.944;9.098;2023-04-25T14:47:03;10.10;61.90
21108;DHT22;10712;52.944;9.098;2023-04-25T14:49:29;10.20;64.10
21108;DHT22;10712;52.944;9.098;2023-04-25T14:51:55;10.30;63.50
21108;DHT22;10712;52.944;9.098;2023-04-25T14:54:21;10.40;61.30
21108;DHT22;10712;52.944;9.098;2023-04-25T14:56:46;10.40;62.00
21108;DHT22;10712;52.944;9.098;2023-04-25T14:59:12;10.40;61.10
21108;DHT22;10712;52.944;9.098;2023-04-25T15:01:38;10.20;61.40
21108;DHT22;10712;52.944;9.098;2023-04-25T15:04:04;10.10;60.10
21108;DHT22;10712;52.944;9.098;2023-04-25T15:06:29;9.90;62.70
21108;DHT22;10712;52.944;9.098;2023-04-25T15:08:55;9.70;64.50
21108;DHT22;10712;52.944;9.098;2023-04-25T15:11:22;9.50;65.20
21108;DHT22;10712;52.944;9.098;2023-04-25T15:13:48;9.20;66.80
21108;DHT22;10712;52.944;9.098;2023-04-25T15:16:14;9.00;67.80
21108;DHT22;10712;52.944;9.098;2023-04-25T15:18:40;8.80;69.20
21108;DHT22;10712;52.944;9.098;2023-04-25T15:21:06;8.60;70.20
21108;DHT22;10712;52.944;9.098;2023-04-25T15:23:31;8.50;70.90
21108;DHT22;10712;52.944;9.098;2023-04-25T15:25:57;8.40;72.60
21108;DHT22;10712;52.944;9.098;2023-04-25T15:28:23;8.30;73.20
21108;DHT22;10712;52.944;9.098;2023-04-25T15:30:49;8.30;74.20
21108;DHT22;10712;52.944;9.098;2023-04-25T15:33:15;8.40;74.20
21108;DHT22;10712;52.944;9.098;2023-04-25T15:35:41;8.40;73.30
21108;DHT22;10712;52.944;9.098;2023-04-25T15:38:08;8.50;73.20
21108;DHT22;10712;52.944;9.098;2023-04-25T15:40:35;8.60;73.60
21108;DHT22;10712;52.944;9.098;2023-04-25T15:43:01;8.70;72.10
21108;DHT22;10712;52.944;9.098;2023-04-25T15:45:27;8.80;68.80
21108;DHT22;10712;52.944;9.098;2023-04-25T15:47:55;8.70;68.00
21108;DHT22;10712;52.944;9.098;2023-04-25T15:50:22;8.70;68.20
21108;DHT22;10712;52.944;9.098;2023-04-25T15:52:50;8.60;67.90
21108;DHT22;10712;52.944;9.098;2023-04-25T15:55:18;8.50;69.20
21108;DHT22;10712;52.944;9.098;2023-04-25T15:57:48;8.40;70.00
21108;DHT22;10712;52.944;9.098;2023-04-25T16:00:14;8.40;70.80
21108;DHT22;10712;52.944;9.098;2023-04-25T16:02:44;8.40;72.60
21108;DHT22;10712;52.944;9.098;2023-04-25T16:05:11;8.40;73.40
21108;DHT22;10712;52.944;9.098;2023-04-25T16:07:39;8.50;72.90
21108;DHT22;10712;52.944;9.098;2023-04-25T16:10:07;8.50;72.80
21108;DHT22;10712;52.944;9.098;2023-04-25T16:12:33;8.40;72.50